sensor_id;sensor_type;location;lat;lon;timestamp;temperature;humidity
42683;DHT22;28293;50.930;3.464;2022-12-29T00:00:10;11.70;89.50
42683;DHT22;28293;50.930;3.464;2022-12-29T00:02:37;11.80;89.50
42683;DHT22;28293;50.930;3.464;2022-12-29T00:05:03;11.70;89.30
42683;DHT22;28293;50.930;3.464;2022-12-29T00:07:29;11.80;89.10
42683;DHT22;28293;50.930;3.464;2022-12-29T00:09:55;11.90;88.90
42683;DHT22;28293;50.930;3.464;2022-12-29T00:12:22;11.90;88.90
42683;DHT22;28293;50.930;3.464;2022-12-29T00:14:48;11.90;88.70
42683;DHT22;28293;50.930;3.464;2022-12-29T00:17:33;11.80;88.60
42683;DHT22;28293;50.930;3.464;2022-12-29T00:19:59;11.90;88.30
42683;DHT22;28293;50.930;3.464;2022-12-29T00:22:44;11.90;87.90
42683;DHT22;28293;50.930;3.464;2022-12-29T00:25:28;11.90;87.70
42683;DHT22;28293;50.930;3.464;2022-12-29T00:28:13;11.90;87.80
42683;DHT22;28293;50.930;3.464;2022-12-29T00:31:00;11.90;87.60
42683;DHT22;28293;50.930;3.464;2022-12-29T00:33:45;11.90;87.50
42683;DHT22;28293;50.930;3.464;2022-12-29T00:36:35;12.00;87.40
42683;DHT22;28293;50.930;3.464;2022-12-29T00:39:07;12.00;87.30
42683;DHT22;28293;50.930;3.464;2022-12-29T00:41:52;12.00;87.20
42683;DHT22;28293;50.930;3.464;2022-12-29T00:44:37;12.10;87.10
42683;DHT22;28293;50.930;3.464;2022-12-29T00:47:03;12.00;87.10
42683;DHT22;28293;50.930;3.464;2022-12-29T00:49:30;12.00;87.10
42683;DHT22;28293;50.930;3.464;2022-12-29T00:52:05;12.00;87.10
42683;DHT22;28293;50.930;3.464;2022-12-29T00:54:34;12.00;87.10
42683;DHT22;28293;50.930;3.464;2022-12-29T00:57:01;11.90;87.20
42683;DHT22;28293;50.930;3.464;2022-12-29T00:59:27;11.90;87.20
42683;DHT22;28293;50.930;3.464;2022-12-29T01:01:53;11.90;87.30
42683;DHT22;28293;50.930;3.464;2022-12-29T01:04:22;11.90;87.10
42683;DHT22;28293;50.930;3.464;2022-12-29T01:06:48;11.90;87.00
42683;DHT22;28293;50.930;3.464;2022-12-29T01:09:15;11.90;87.00
42683;DHT22;28293;50.930;3.464;2022-12-29T01:12:03;11.90;87.10
42683;DHT22;28293;50.930;3.464;2022-12-29T01:14:30;11.80;86.80
42683;DHT22;28293;50.930;3.464;2022-12-29T01:16:56;11.90;86.80
42683;DHT22;28293;50.930;3.464;2022-12-29T01:19:22;11.90;86.70
42683;DHT22;28293;50.930;3.464;2022-12-29T01:21:48;11.90;86.80
42683;DHT22;28293;50.930;3.464;2022-12-29T01:24:15;11.90;86.70
42683;DHT22;28293;50.930;3.464;2022-12-29T01:26:41;11.90;86.70
42683;DHT22;28293;50.930;3.464;2022-12-29T01:29:08;11.90;86.70
42683;DHT22;28293;50.930;3.464;2022-12-29T01:31:34;11.90;86.80
42683;DHT22;28293;50.930;3.464;2022-12-29T01:34:06;11.80;86.70
42683;DHT22;28293;50.930;3.464;2022-12-29T01:36:32;11.80;86.70
42683;DHT22;28293;50.930;3.464;2022-12-29T01:39:12;11.80;86.70
42683;DHT22;28293;50.930;3.464;2022-12-29T01:41:38;11.80;86.50
42683;DHT22;28293;50.930;3.464;2022-12-29T01:47:08;11.80;86.40
42683;DHT22;28293;50.930;3.464;2022-12-29T01:49:34;11.80;86.40
42683;DHT22;28293;50.930;3.464;2022-12-29T01:52:04;11.70;86.60
42683;DHT22;28293;50.930;3.464;2022-12-29T01:54:36;11.80;86.50
42683;DHT22;28293;50.930;3.464;2022-12-29T01:57:06;11.70;86.40
42683;DHT22;28293;50.930;3.464;2022-12-29T01:59:36;11.70;86.40
42683;DHT22;28293;50.930;3.464;2022-12-29T02:02:05;11.80;86.30
42683;DHT22;28293;50.930;3.464;2022-12-29T02:04:32;11.70;86.40
42683;DHT22;28293;50.930;3.464;2022-12-29T02:07:05;11.70;86.30
42683;DHT22;28293;50.930;3.464;2022-12-29T02:09:33;11.70;86.40
42683;DHT22;28293;50.930;3.464;2022-12-29T02:11:59;11.70;86.10
42683;DHT22;28293;50.930;3.464;2022-12-29T02:14:26;11.70;86.00
42683;DHT22;28293;50.930;3.464;2022-12-29T02:17:02;11.70;85.90
42683;DHT22;28293;50.930;3.464;2022-12-29T02:19:58;11.70;85.80
42683;DHT22;28293;50.930;3.464;2022-12-29T02:25:44;11.70;85.80
42683;DHT22;28293;50.930;3.464;2022-12-29T02:28:35;11.60;85.80
42683;DHT22;28293;50.930;3.464;2022-12-29T02:37:06;11.70;85.50
42683;DHT22;28293;50.930;3.464;2022-12-29T02:39:44;11.60;85.40
42683;DHT22;28293;50.930;3.464;2022-12-29T02:45:05;11.70;84.50
42683;DHT22;28293;50.930;3.464;2022-12-29T02:50:59;11.60;83.60
42683;DHT22;28293;50.930;3.464;2022-12-29T02:53:27;11.60;83.20
42683;DHT22;28293;50.930;3.464;2022-12-29T02:56:12;11.60;83.30
42683;DHT22;28293;50.930;3.464;2022-12-29T02:58:38;11.60;82.70
42683;DHT22;28293;50.930;3.464;2022-12-29T03:04:46;11.60;82.20
42683;DHT22;28293;50.930;3.464;2022-12-29T03:13:01;11.60;82.20
42683;DHT22;28293;50.930;3.464;2022-12-29T03:16:14;11.50;82.30
42683;DHT22;28293;50.930;3.464;2022-12-29T03:19:05;11.50;82.30
42683;DHT22;28293;50.930;3.464;2022-12-29T03:21:39;11.50;82.30
42683;DHT22;28293;50.930;3.464;2022-12-29T03:24:30;11.40;82.40
42683;DHT22;28293;50.930;3.464;2022-12-29T03:27:00;11.40;82.60
42683;DHT22;28293;50.930;3.464;2022-12-29T03:29:29;11.30;82.70
42683;DHT22;28293;50.930;3.464;2022-12-29T03:31:59;11.30;82.20
42683;DHT22;28293;50.930;3.464;2022-12-29T03:34:25;11.30;81.70
42683;DHT22;28293;50.930;3.464;2022-12-29T03:37:01;11.30;81.20
42683;DHT22;28293;50.930;3.464;2022-12-29T03:39:27;11.20;81.20
42683;DHT22;28293;50.930;3.464;2022-12-29T03:42:02;11.10;81.30
42683;DHT22;28293;50.930;3.464;2022-12-29T03:44:38;11.10;81.50
42683;DHT22;28293;50.930;3.464;2022-12-29T03:47:06;11.00;81.60
42683;DHT22;28293;50.930;3.464;2022-12-29T03:49:33;11.10;81.30
42683;DHT22;28293;50.930;3.464;2022-12-29T03:51:59;11.10;81.00
42683;DHT22;28293;50.930;3.464;2022-12-29T03:54:25;11.10;80.80
42683;DHT22;28293;50.930;3.464;2022-12-29T03:56:51;11.10;80.90
42683;DHT22;28293;50.930;3.464;2022-12-29T03:59:17;11.10;80.30
42683;DHT22;28293;50.930;3.464;2022-12-29T04:01:43;11.10;80.30
42683;DHT22;28293;50.930;3.464;2022-12-29T04:04:09;11.20;80.10
42683;DHT22;28293;50.930;3.464;2022-12-29T04:06:35;11.20;79.60
42683;DHT22;28293;50.930;3.464;2022-12-29T04:09:01;11.20;79.50
42683;DHT22;28293;50.930;3.464;2022-12-29T04:11:27;11.20;79.30
42683;DHT22;28293;50.930;3.464;2022-12-29T04:13:54;11.20;79.40
42683;DHT22;28293;50.930;3.464;2022-12-29T04:16:20;11.20;79.30
42683;DHT22;28293;50.930;3.464;2022-12-29T04:18:46;11.20;79.40
42683;DHT22;28293;50.930;3.464;2022-12-29T04:21:12;11.20;79.50
42683;DHT22;28293;50.930;3.464;2022-12-29T04:23:39;11.20;79.40
42683;DHT22;28293;50.930;3.464;2022-12-29T04:26:06;11.20;79.30
42683;DHT22;28293;50.930;3.464;2022-12-29T04:28:36;11.20;79.20
42683;DHT22;28293;50.930;3.464;2022-12-29T04:31:02;11.20;78.50
42683;DHT22;28293;50.930;3.464;2022-12-29T04:33:30;11.20;78.80
42683;DHT22;28293;50.930;3.464;2022-12-29T04:35:56;11.20;78.50
42683;DHT22;28293;50.930;3.464;2022-12-29T04:38:23;11.10;78.40
42683;DHT22;28293;50.930;3.464;2022-12-29T04:40:50;11.10;78.60
42683;DHT22;28293;50.930;3.464;2022-12-29T04:43:17;11.10;78.90
42683;DHT22;28293;50.930;3.464;2022-12-29T04:45:48;11.10;79.00
42683;DHT22;28293;50.930;3.464;2022-12-29T04:48:14;11.10;79.20
42683;DHT22;28293;50.930;3.464;2022-12-29T04:50:41;11.00;79.40
42683;DHT22;28293;50.930;3.464;2022-12-29T04:53:07;11.00;79.40
42683;DHT22;28293;50.930;3.464;2022-12-29T04:55:33;11.00;79.50
42683;DHT22;28293;50.930;3.464;2022-12-29T04:58:00;11.00;79.40
42683;DHT22;28293;50.930;3.464;2022-12-29T05:00:29;11.00;79.50
42683;DHT22;28293;50.930;3.464;2022-12-29T05:02:55;11.00;79.60
42683;DHT22;28293;50.930;3.464;2022-12-29T05:05:21;11.00;79.50
42683;DHT22;28293;50.930;3.464;2022-12-29T05:07:48;11.00;79.30
42683;DHT22;28293;50.930;3.464;2022-12-29T05:10:14;11.00;79.30
42683;DHT22;28293;50.930;3.464;2022-12-29T05:12:40;11.00;79.50
42683;DHT22;28293;50.930;3.464;2022-12-29T05:15:08;11.00;79.70
42683;DHT22;28293;50.930;3.464;2022-12-29T05:17:35;10.90;79.60
42683;DHT22;28293;50.930;3.464;2022-12-29T05:20:02;10.90;79.70
42683;DHT22;28293;50.930;3.464;2022-12-29T05:22:31;10.90;79.70
42683;DHT22;28293;50.930;3.464;2022-12-29T05:24:57;10.90;79.70
42683;DHT22;28293;50.930;3.464;2022-12-29T05:27:23;10.80;80.10
42683;DHT22;28293;50.930;3.464;2022-12-29T05:29:49;10.90;80.00
42683;DHT22;28293;50.930;3.464;2022-12-29T05:32:15;10.80;79.60
42683;DHT22;28293;50.930;3.464;2022-12-29T05:34:41;10.80;79.50
42683;DHT22;28293;50.930;3.464;2022-12-29T05:37:07;10.90;79.50
42683;DHT22;28293;50.930;3.464;2022-12-29T05:39:33;10.80;79.60
42683;DHT22;28293;50.930;3.464;2022-12-29T05:41:59;11.00;79.30
42683;DHT22;28293;50.930;3.464;2022-12-29T05:44:25;11.00;79.10
42683;DHT22;28293;50.930;3.464;2022-12-29T05:46:51;11.00;79.00
42683;DHT22;28293;50.930;3.464;2022-12-29T05:49:17;11.00;78.60
42683;DHT22;28293;50.930;3.464;2022-12-29T05:51:43;11.00;78.40
42683;DHT22;28293;50.930;3.464;2022-12-29T05:54:09;11.00;78.10
42683;DHT22;28293;50.930;3.464;2022-12-29T05:56:35;11.10;77.80
42683;DHT22;28293;50.930;3.464;2022-12-29T05:59:01;11.10;77.60
42683;DHT22;28293;50.930;3.464;2022-12-29T06:01:28;11.10;77.20
42683;DHT22;28293;50.930;3.464;2022-12-29T06:03:55;11.10;77.10
42683;DHT22;28293;50.930;3.464;2022-12-29T06:06:21;11.10;77.00
42683;DHT22;28293;50.930;3.464;2022-12-29T06:08:48;11.10;76.90
42683;DHT22;28293;50.930;3.464;2022-12-29T06:11:14;11.10;76.70
42683;DHT22;28293;50.930;3.464;2022-12-29T06:13:40;11.10;76.80
42683;DHT22;28293;50.930;3.464;2022-12-29T06:16:06;11.10;77.00
42683;DHT22;28293;50.930;3.464;2022-12-29T06:18:32;11.10;76.90
42683;DHT22;28293;50.930;3.464;2022-12-29T06:21:02;11.10;77.20
42683;DHT22;28293;50.930;3.464;2022-12-29T06:23:29;11.00;78.30
42683;DHT22;28293;50.930;3.464;2022-12-29T06:25:55;11.00;78.10
42683;DHT22;28293;50.930;3.464;2022-12-29T06:28:21;11.00;78.30
42683;DHT22;28293;50.930;3.464;2022-12-29T06:30:47;11.00;78.00
42683;DHT22;28293;50.930;3.464;2022-12-29T06:33:14;11.00;77.40
42683;DHT22;28293;50.930;3.464;2022-12-29T06:35:42;11.00;77.20
42683;DHT22;28293;50.930;3.464;2022-12-29T06:38:09;11.00;76.80
42683;DHT22;28293;50.930;3.464;2022-12-29T06:40:34;11.10;76.20
42683;DHT22;28293;50.930;3.464;2022-12-29T06:43:00;11.10;76.20
42683;DHT22;28293;50.930;3.464;2022-12-29T06:45:26;11.00;76.30
42683;DHT22;28293;50.930;3.464;2022-12-29T06:47:52;11.00;76.50
42683;DHT22;28293;50.930;3.464;2022-12-29T06:50:17;11.00;76.50
42683;DHT22;28293;50.930;3.464;2022-12-29T06:52:43;11.00;76.20
42683;DHT22;28293;50.930;3.464;2022-12-29T06:55:09;11.00;75.80
42683;DHT22;28293;50.930;3.464;2022-12-29T06:57:34;11.00;75.50
42683;DHT22;28293;50.930;3.464;2022-12-29T07:00:00;11.00;75.90
42683;DHT22;28293;50.930;3.464;2022-12-29T07:02:26;11.00;75.80
42683;DHT22;28293;50.930;3.464;2022-12-29T07:04:52;10.90;76.10
42683;DHT22;28293;50.930;3.464;2022-12-29T07:07:19;10.90;75.80
42683;DHT22;28293;50.930;3.464;2022-12-29T07:09:45;11.00;75.70
42683;DHT22;28293;50.930;3.464;2022-12-29T07:12:10;11.00;75.40
42683;DHT22;28293;50.930;3.464;2022-12-29T07:14:36;11.10;75.20
42683;DHT22;28293;50.930;3.464;2022-12-29T07:17:02;11.00;75.10
42683;DHT22;28293;50.930;3.464;2022-12-29T07:19:32;11.00;75.00
42683;DHT22;28293;50.930;3.464;2022-12-29T07:21:58;11.00;75.10
42683;DHT22;28293;50.930;3.464;2022-12-29T07:24:23;11.00;75.10
42683;DHT22;28293;50.930;3.464;2022-12-29T07:26:51;11.00;75.20
42683;DHT22;28293;50.930;3.464;2022-12-29T07:29:17;11.00;75.20
42683;DHT22;28293;50.930;3.464;2022-12-29T07:31:43;11.00;75.10
42683;DHT22;28293;50.930;3.464;2022-12-29T07:34:09;11.00;74.80
42683;DHT22;28293;50.930;3.464;2022-12-29T07:36:34;11.00;74.80
42683;DHT22;28293;50.930;3.464;2022-12-29T07:39:00;11.10;75.00
42683;DHT22;28293;50.930;3.464;2022-12-29T07:41:26;11.10;75.00
42683;DHT22;28293;50.930;3.464;2022-12-29T07:43:52;11.00;75.10
42683;DHT22;28293;50.930;3.464;2022-12-29T07:46:18;11.00;75.20
42683;DHT22;28293;50.930;3.464;2022-12-29T07:48:44;11.00;75.10
42683;DHT22;28293;50.930;3.464;2022-12-29T07:51:10;11.10;75.40
42683;DHT22;28293;50.930;3.464;2022-12-29T07:53:37;11.10;75.60
42683;DHT22;28293;50.930;3.464;2022-12-29T07:56:03;11.00;75.50
42683;DHT22;28293;50.930;3.464;2022-12-29T07:58:29;11.10;75.00
42683;DHT22;28293;50.930;3.464;2022-12-29T08:00:56;11.10;75.00
42683;DHT22;28293;50.930;3.464;2022-12-29T08:03:23;11.00;74.90
42683;DHT22;28293;50.930;3.464;2022-12-29T08:05:50;11.10;74.70
42683;DHT22;28293;50.930;3.464;2022-12-29T08:08:16;11.10;74.70
42683;DHT22;28293;50.930;3.464;2022-12-29T08:10:42;11.10;75.00
42683;DHT22;28293;50.930;3.464;2022-12-29T08:13:08;11.10;75.20
42683;DHT22;28293;50.930;3.464;2022-12-29T08:15:36;11.10;75.50
42683;DHT22;28293;50.930;3.464;2022-12-29T08:18:03;11.10;75.50
42683;DHT22;28293;50.930;3.464;2022-12-29T08:20:29;11.00;76.00
42683;DHT22;28293;50.930;3.464;2022-12-29T08:22:55;11.00;76.20
42683;DHT22;28293;50.930;3.464;2022-12-29T08:25:21;11.00;76.40
42683;DHT22;28293;50.930;3.464;2022-12-29T08:27:50;10.90;76.80
42683;DHT22;28293;50.930;3.464;2022-12-29T08:30:16;11.00;77.20
42683;DHT22;28293;50.930;3.464;2022-12-29T08:32:46;10.90;77.80
42683;DHT22;28293;50.930;3.464;2022-12-29T08:35:12;10.90;78.20
42683;DHT22;28293;50.930;3.464;2022-12-29T08:37:38;10.80;78.40
42683;DHT22;28293;50.930;3.464;2022-12-29T08:40:05;10.80;78.90
42683;DHT22;28293;50.930;3.464;2022-12-29T08:42:31;10.80;79.20
42683;DHT22;28293;50.930;3.464;2022-12-29T08:44:58;10.70;79.20
42683;DHT22;28293;50.930;3.464;2022-12-29T08:47:25;10.80;79.30
42683;DHT22;28293;50.930;3.464;2022-12-29T08:49:52;10.70;79.70
42683;DHT22;28293;50.930;3.464;2022-12-29T08:52:18;10.70;80.30
42683;DHT22;28293;50.930;3.464;2022-12-29T08:54:47;10.70;80.80
42683;DHT22;28293;50.930;3.464;2022-12-29T08:57:13;10.60;81.20
42683;DHT22;28293;50.930;3.464;2022-12-29T08:59:39;10.60;81.50
42683;DHT22;28293;50.930;3.464;2022-12-29T09:02:08;10.60;81.70
42683;DHT22;28293;50.930;3.464;2022-12-29T09:04:35;10.60;81.90
42683;DHT22;28293;50.930;3.464;2022-12-29T09:07:01;10.50;82.70
42683;DHT22;28293;50.930;3.464;2022-12-29T09:09:27;10.40;83.40
42683;DHT22;28293;50.930;3.464;2022-12-29T09:11:54;10.30;84.10
42683;DHT22;28293;50.930;3.464;2022-12-29T09:14:20;10.30;84.50
42683;DHT22;28293;50.930;3.464;2022-12-29T09:16:47;10.20;84.80
42683;DHT22;28293;50.930;3.464;2022-12-29T09:19:31;10.30;84.90
42683;DHT22;28293;50.930;3.464;2022-12-29T09:21:57;10.30;84.70
42683;DHT22;28293;50.930;3.464;2022-12-29T09:24:23;10.30;84.50
42683;DHT22;28293;50.930;3.464;2022-12-29T09:26:49;10.40;84.10
42683;DHT22;28293;50.930;3.464;2022-12-29T09:29:15;10.40;83.90
42683;DHT22;28293;50.930;3.464;2022-12-29T09:31:41;10.40;83.70
42683;DHT22;28293;50.930;3.464;2022-12-29T09:34:07;10.40;83.60
42683;DHT22;28293;50.930;3.464;2022-12-29T09:36:33;10.40;83.40
42683;DHT22;28293;50.930;3.464;2022-12-29T09:38:59;10.50;83.60
42683;DHT22;28293;50.930;3.464;2022-12-29T09:42:27;10.50;83.30
42683;DHT22;28293;50.930;3.464;2022-12-29T09:47:21;10.60;82.80
42683;DHT22;28293;50.930;3.464;2022-12-29T09:50:03;10.60;82.90
42683;DHT22;28293;50.930;3.464;2022-12-29T09:52:37;10.60;83.50
42683;DHT22;28293;50.930;3.464;2022-12-29T09:55:13;10.60;83.90
42683;DHT22;28293;50.930;3.464;2022-12-29T09:57:48;10.50;84.20
42683;DHT22;28293;50.930;3.464;2022-12-29T10:00:21;10.50;84.40
42683;DHT22;28293;50.930;3.464;2022-12-29T10:02:49;10.60;84.30
42683;DHT22;28293;50.930;3.464;2022-12-29T10:10:43;10.60;82.70
42683;DHT22;28293;50.930;3.464;2022-12-29T10:16:08;10.60;82.30
42683;DHT22;28293;50.930;3.464;2022-12-29T10:24:02;10.80;81.40
42683;DHT22;28293;50.930;3.464;2022-12-29T10:26:36;10.80;80.60
42683;DHT22;28293;50.930;3.464;2022-12-29T10:29:33;10.80;80.80
42683;DHT22;28293;50.930;3.464;2022-12-29T10:32:02;10.90;80.40
42683;DHT22;28293;50.930;3.464;2022-12-29T10:34:38;10.90;80.40
42683;DHT22;28293;50.930;3.464;2022-12-29T10:37:17;10.90;80.10
42683;DHT22;28293;50.930;3.464;2022-12-29T10:39:51;10.90;80.50
42683;DHT22;28293;50.930;3.464;2022-12-29T10:44:51;10.80;80.60
42683;DHT22;28293;50.930;3.464;2022-12-29T10:47:22;10.90;80.40
42683;DHT22;28293;50.930;3.464;2022-12-29T10:49:49;10.90;80.30
42683;DHT22;28293;50.930;3.464;2022-12-29T10:52:16;10.90;80.10
42683;DHT22;28293;50.930;3.464;2022-12-29T10:54:55;11.00;80.20
42683;DHT22;28293;50.930;3.464;2022-12-29T10:57:26;11.00;80.20
42683;DHT22;28293;50.930;3.464;2022-12-29T10:59:53;11.00;80.80
42683;DHT22;28293;50.930;3.464;2022-12-29T11:07:47;11.00;80.70
42683;DHT22;28293;50.930;3.464;2022-12-29T11:10:21;11.00;80.50
42683;DHT22;28293;50.930;3.464;2022-12-29T11:12:59;11.10;80.10
42683;DHT22;28293;50.930;3.464;2022-12-29T11:15:25;11.10;80.00
42683;DHT22;28293;50.930;3.464;2022-12-29T11:17:56;11.00;80.10
42683;DHT22;28293;50.930;3.464;2022-12-29T11:20:27;11.00;80.20
42683;DHT22;28293;50.930;3.464;2022-12-29T11:22:54;10.90;80.70
42683;DHT22;28293;50.930;3.464;2022-12-29T11:25:19;10.90;81.00
42683;DHT22;28293;50.930;3.464;2022-12-29T11:28:00;10.90;81.10
42683;DHT22;28293;50.930;3.464;2022-12-29T11:30:29;10.90;81.40
42683;DHT22;28293;50.930;3.464;2022-12-29T11:32:56;10.80;81.70
42683;DHT22;28293;50.930;3.464;2022-12-29T11:35:43;10.90;82.30
42683;DHT22;28293;50.930;3.464;2022-12-29T11:38:33;10.80;82.90
42683;DHT22;28293;50.930;3.464;2022-12-29T11:40:59;10.70;83.70
42683;DHT22;28293;50.930;3.464;2022-12-29T11:43:34;10.70;84.30
42683;DHT22;28293;50.930;3.464;2022-12-29T11:46:00;10.70;84.60
42683;DHT22;28293;50.930;3.464;2022-12-29T11:48:33;10.70;84.50
42683;DHT22;28293;50.930;3.464;2022-12-29T11:51:03;10.80;84.50
42683;DHT22;28293;50.930;3.464;2022-12-29T11:53:51;10.80;84.00
42683;DHT22;28293;50.930;3.464;2022-12-29T11:56:20;10.80;83.20
42683;DHT22;28293;50.930;3.464;2022-12-29T11:58:52;10.80;83.50
42683;DHT22;28293;50.930;3.464;2022-12-29T12:01:36;10.70;83.30
42683;DHT22;28293;50.930;3.464;2022-12-29T12:04:18;10.70;82.80
42683;DHT22;28293;50.930;3.464;2022-12-29T12:09:27;10.70;82.60
42683;DHT22;28293;50.930;3.464;2022-12-29T12:11:54;10.60;82.20
42683;DHT22;28293;50.930;3.464;2022-12-29T12:14:27;10.60;82.40
42683;DHT22;28293;50.930;3.464;2022-12-29T12:16:56;10.60;82.10
42683;DHT22;28293;50.930;3.464;2022-12-29T12:22:38;10.70;81.50
42683;DHT22;28293;50.930;3.464;2022-12-29T12:25:37;10.80;80.70
42683;DHT22;28293;50.930;3.464;2022-12-29T12:28:32;10.80;80.40
42683;DHT22;28293;50.930;3.464;2022-12-29T12:31:01;10.90;80.50
42683;DHT22;28293;50.930;3.464;2022-12-29T12:44:37;10.60;81.60
42683;DHT22;28293;50.930;3.464;2022-12-29T12:59:02;10.80;80.80
42683;DHT22;28293;50.930;3.464;2022-12-29T13:02:06;10.70;81.20
42683;DHT22;28293;50.930;3.464;2022-12-29T13:05:14;10.70;81.70
42683;DHT22;28293;50.930;3.464;2022-12-29T13:10:40;10.30;81.70
42683;DHT22;28293;50.930;3.464;2022-12-29T13:21:09;10.00;83.50
42683;DHT22;28293;50.930;3.464;2022-12-29T13:26:19;9.80;82.50
42683;DHT22;28293;50.930;3.464;2022-12-29T13:29:16;9.80;82.10
42683;DHT22;28293;50.930;3.464;2022-12-29T13:34:41;9.90;82.00
42683;DHT22;28293;50.930;3.464;2022-12-29T13:37:12;10.00;81.50
42683;DHT22;28293;50.930;3.464;2022-12-29T13:39:43;10.00;80.50
42683;DHT22;28293;50.930;3.464;2022-12-29T13:42:11;10.10;80.60
42683;DHT22;28293;50.930;3.464;2022-12-29T13:44:53;10.10;80.40
42683;DHT22;28293;50.930;3.464;2022-12-29T13:47:40;10.10;80.50
42683;DHT22;28293;50.930;3.464;2022-12-29T13:50:22;10.00;80.80
42683;DHT22;28293;50.930;3.464;2022-12-29T14:00:26;9.80;80.60
42683;DHT22;28293;50.930;3.464;2022-12-29T14:03:59;9.60;80.90
42683;DHT22;28293;50.930;3.464;2022-12-29T14:08:50;9.60;80.40
42683;DHT22;28293;50.930;3.464;2022-12-29T14:11:18;9.60;80.10
42683;DHT22;28293;50.930;3.464;2022-12-29T14:13:47;9.60;80.20
42683;DHT22;28293;50.930;3.464;2022-12-29T14:16:32;9.60;80.00
42683;DHT22;28293;50.930;3.464;2022-12-29T14:19:29;9.70;80.10
42683;DHT22;28293;50.930;3.464;2022-12-29T14:22:01;9.80;79.80
42683;DHT22;28293;50.930;3.464;2022-12-29T14:26:53;10.00;78.90
42683;DHT22;28293;50.930;3.464;2022-12-29T14:31:51;10.10;78.80
42683;DHT22;28293;50.930;3.464;2022-12-29T14:36:58;10.00;78.90
42683;DHT22;28293;50.930;3.464;2022-12-29T14:39:43;10.10;79.30
42683;DHT22;28293;50.930;3.464;2022-12-29T14:44:51;9.80;80.20
42683;DHT22;28293;50.930;3.464;2022-12-29T14:49:48;9.70;81.10
42683;DHT22;28293;50.930;3.464;2022-12-29T14:52:25;9.70;81.20
42683;DHT22;28293;50.930;3.464;2022-12-29T14:57:44;9.70;81.50
42683;DHT22;28293;50.930;3.464;2022-12-29T15:00:23;9.60;82.00
42683;DHT22;28293;50.930;3.464;2022-12-29T15:03:36;9.60;82.10
42683;DHT22;28293;50.930;3.464;2022-12-29T15:06:08;9.60;83.00
42683;DHT22;28293;50.930;3.464;2022-12-29T15:11:44;9.40;83.80
42683;DHT22;28293;50.930;3.464;2022-12-29T15:14:29;9.40;83.40
42683;DHT22;28293;50.930;3.464;2022-12-29T15:16:55;9.30;82.40
42683;DHT22;28293;50.930;3.464;2022-12-29T15:19:26;9.20;82.50
42683;DHT22;28293;50.930;3.464;2022-12-29T15:21:55;9.10;82.20
42683;DHT22;28293;50.930;3.464;2022-12-29T15:24:23;9.10;82.20
42683;DHT22;28293;50.930;3.464;2022-12-29T15:26:51;9.10;81.60
42683;DHT22;28293;50.930;3.464;2022-12-29T15:29:39;9.10;81.40
42683;DHT22;28293;50.930;3.464;2022-12-29T15:32:21;9.10;81.60
42683;DHT22;28293;50.930;3.464;2022-12-29T15:34:50;9.10;81.60
42683;DHT22;28293;50.930;3.464;2022-12-29T15:37:28;9.00;81.70
42683;DHT22;28293;50.930;3.464;2022-12-29T15:39:57;9.00;81.80
42683;DHT22;28293;50.930;3.464;2022-12-29T15:42:46;9.10;81.60
42683;DHT22;28293;50.930;3.464;2022-12-29T15:45:15;9.00;82.00
42683;DHT22;28293;50.930;3.464;2022-12-29T15:47:43;8.90;82.20
42683;DHT22;28293;50.930;3.464;2022-12-29T15:50:23;9.00;82.50
42683;DHT22;28293;50.930;3.464;2022-12-29T15:52:50;9.00;82.50
42683;DHT22;28293;50.930;3.464;2022-12-29T15:55:24;8.90;82.70
42683;DHT22;28293;50.930;3.464;2022-12-29T15:57:59;8.90;82.80
42683;DHT22;28293;50.930;3.464;2022-12-29T16:00:34;8.90;83.00
42683;DHT22;28293;50.930;3.464;2022-12-29T16:03:02;8.80;83.00
42683;DHT22;28293;50.930;3.464;2022-12-29T16:05:37;8.80;83.00
42683;DHT22;28293;50.930;3.464;2022-12-29T16:08:03;8.70;83.30
42683;DHT22;28293;50.930;3.464;2022-12-29T16:10:45;8.70;83.70
42683;DHT22;28293;50.930;3.464;2022-12-29T16:13:26;8.70;83.70
42683;DHT22;28293;50.930;3.464;2022-12-29T16:15:59;8.60;83.90
42683;DHT22;28293;50.930;3.464;2022-12-29T16:18:28;8.60;83.90
42683;DHT22;28293;50.930;3.464;2022-12-29T16:20:55;8.60;83.90
42683;DHT22;28293;50.930;3.464;2022-12-29T16:23:26;8.60;83.90
42683;DHT22;28293;50.930;3.464;2022-12-29T16:25:54;8.60;83.90
42683;DHT22;28293;50.930;3.464;2022-12-29T16:28:23;8.60;83.90
42683;DHT22;28293;50.930;3.464;2022-12-29T16:31:20;8.60;83.80
42683;DHT22;28293;50.930;3.464;2022-12-29T16:33:54;8.60;84.00
42683;DHT22;28293;50.930;3.464;2022-12-29T16:36:30;8.60;84.10
42683;DHT22;28293;50.930;3.464;2022-12-29T16:39:28;8.60;83.70
42683;DHT22;28293;50.930;3.464;2022-12-29T16:41:54;8.60;83.70
42683;DHT22;28293;50.930;3.464;2022-12-29T16:44:30;8.60;83.30
42683;DHT22;28293;50.930;3.464;2022-12-29T16:49:40;8.60;83.10
42683;DHT22;28293;50.930;3.464;2022-12-29T16:52:20;8.60;83.30
42683;DHT22;28293;50.930;3.464;2022-12-29T16:54:51;8.50;83.30
42683;DHT22;28293;50.930;3.464;2022-12-29T16:57:33;8.50;83.60
42683;DHT22;28293;50.930;3.464;2022-12-29T17:00:05;8.50;83.60
42683;DHT22;28293;50.930;3.464;2022-12-29T17:02:32;8.60;83.50
42683;DHT22;28293;50.930;3.464;2022-12-29T17:04:59;8.50;83.50
42683;DHT22;28293;50.930;3.464;2022-12-29T17:07:27;8.50;83.60
42683;DHT22;28293;50.930;3.464;2022-12-29T17:09:53;8.50;83.50
42683;DHT22;28293;50.930;3.464;2022-12-29T17:12:29;8.50;83.50
42683;DHT22;28293;50.930;3.464;2022-12-29T17:14:55;8.60;83.30
42683;DHT22;28293;50.930;3.464;2022-12-29T17:17:33;8.60;83.30
42683;DHT22;28293;50.930;3.464;2022-12-29T17:20:05;8.60;83.30
42683;DHT22;28293;50.930;3.464;2022-12-29T17:22:31;8.60;83.30
42683;DHT22;28293;50.930;3.464;2022-12-29T17:24:59;8.60;83.20
42683;DHT22;28293;50.930;3.464;2022-12-29T17:27:38;8.60;83.10
42683;DHT22;28293;50.930;3.464;2022-12-29T17:30:27;8.60;83.00
42683;DHT22;28293;50.930;3.464;2022-12-29T17:32:58;8.60;82.90
42683;DHT22;28293;50.930;3.464;2022-12-29T17:35:25;8.60;82.80
42683;DHT22;28293;50.930;3.464;2022-12-29T17:37:51;8.60;82.90
42683;DHT22;28293;50.930;3.464;2022-12-29T17:40:18;8.60;82.60
42683;DHT22;28293;50.930;3.464;2022-12-29T17:42:49;8.70;82.30
42683;DHT22;28293;50.930;3.464;2022-12-29T17:47:50;8.80;81.40
42683;DHT22;28293;50.930;3.464;2022-12-29T17:50:20;8.80;81.40
42683;DHT22;28293;50.930;3.464;2022-12-29T17:52:54;8.80;81.60
42683;DHT22;28293;50.930;3.464;2022-12-29T17:55:22;8.80;81.20
42683;DHT22;28293;50.930;3.464;2022-12-29T17:57:48;8.80;81.20
42683;DHT22;28293;50.930;3.464;2022-12-29T18:00:22;8.80;81.50
42683;DHT22;28293;50.930;3.464;2022-12-29T18:02:49;8.80;81.50
42683;DHT22;28293;50.930;3.464;2022-12-29T18:05:18;8.80;81.60
42683;DHT22;28293;50.930;3.464;2022-12-29T18:07:44;8.80;81.70
42683;DHT22;28293;50.930;3.464;2022-12-29T18:10:10;8.60;81.60